Time;durP1;ratioP1;P1;durP2;ratioP2;P2;SDS_P1;SDS_P2;PMS_P1;PMS_P2;Temp;Humidity;BMP_temperature;BMP_pressure;BME280_temperature;BME280_humidity;BME280_pressure;Samples;Min_cycle;Max_cycle;Signal;HPM_P1;HPM_P2
2023/02/26 00:03:40;;;;;;;12.9;7;;;;;;;1.7;89.2;97520;;;;
2023/02/26 00:14:39;;;;;;;12.9;7;;;;;;;1.7;88.7;97540;;;;
2023/02/26 00:25:39;;;;;;;12.9;7;;;;;;;1.6;87.3;97540;;;;
2023/02/26 00:35:39;;;;;;;10.8;6.4;;;;;;;1.6;88.4;97560;;;;
2023/02/26 00:45:40;;;;;;;10.8;6.4;;;;;;;1.6;88.6;97570;;;;
2023/02/26 00:56:39;;;;;;;10.8;6.4;;;;;;;1.7;88.5;97590;;;;
2023/02/26 01:06:39;;;;;;;12.1;7.3;;;;;;;1.6;88.1;97590;;;;
2023/02/26 01:16:39;;;;;;;12.1;7.3;;;;;;;1.6;88.2;97580;;;;
2023/02/26 01:26:40;;;;;;;12.1;7.3;;;;;;;1.6;88.1;97560;;;;
2023/02/26 01:36:40;;;;;;;12.8;6.9;;;;;;;1.6;87.8;97560;;;;
2023/02/26 01:46:39;;;;;;;12.8;6.9;;;;;;;1.5;87.8;97580;;;;
2023/02/26 01:56:39;;;;;;;12.8;6.9;;;;;;;1.5;87.8;97600;;;;
2023/02/26 02:07:39;;;;;;;12.1;7;;;;;;;1.5;87.5;97630;;;;
2023/02/26 02:17:39;;;;;;;12.1;7;;;;;;;1.6;87.2;97620;;;;
2023/02/26 02:27:39;;;;;;;12.1;7;;;;;;;1.5;87.3;97640;;;;
2023/02/26 02:37:40;;;;;;;13.9;6.9;;;;;;;1.5;88.1;97680;;;;
2023/02/26 02:48:40;;;;;;;13.9;6.9;;;;;;;1.4;88.3;97690;;;;
2023/02/26 02:58:40;;;;;;;13.9;6.9;;;;;;;1.4;87.4;97680;;;;
2023/02/26 03:09:40;;;;;;;13.2;8.7;;;;;;;1.3;87.4;97650;;;;
2023/02/26 03:19:40;;;;;;;13.2;8.7;;;;;;;1.3;86.4;97670;;;;
2023/02/26 03:29:40;;;;;;;13.2;8.7;;;;;;;1.3;87.3;97710;;;;
2023/02/26 03:39:40;;;;;;;13.3;6.8;;;;;;;1.4;87.2;97740;;;;
2023/02/26 03:50:40;;;;;;;13.3;6.8;;;;;;;1.4;86.3;97750;;;;
2023/02/26 04:01:40;;;;;;;8.5;4;;;;;;;1.3;83.5;97740;;;;
2023/02/26 04:11:40;;;;;;;8.5;4;;;;;;;1.3;82.9;97770;;;;
2023/02/26 04:22:40;;;;;;;8.5;4;;;;;;;1.3;81.8;97810;;;;
2023/02/26 04:33:40;;;;;;;4.7;2;;;;;;;1.1;81.3;97820;;;;
2023/02/26 04:44:40;;;;;;;4.7;2;;;;;;;1;79.9;97850;;;;
2023/02/26 04:55:40;;;;;;;4.7;2;;;;;;;1;78.7;97850;;;;
2023/02/26 05:05:40;;;;;;;3.4;1.8;;;;;;;0.8;77.7;97850;;;;
2023/02/26 05:16:40;;;;;;;3.4;1.8;;;;;;;0.8;78.2;97870;;;;
2023/02/26 05:27:41;;;;;;;3.4;1.8;;;;;;;0.8;77.4;97870;;;;
2023/02/26 05:37:40;;;;;;;3.4;1.4;;;;;;;0.8;76.4;97880;;;;
2023/02/26 05:47:40;;;;;;;3.4;1.4;;;;;;;0.7;75.9;97920;;;;
2023/02/26 05:58:40;;;;;;;3.4;1.4;;;;;;;0.7;77.1;97950;;;;
2023/02/26 06:08:40;;;;;;;3.8;1.5;;;;;;;0.7;77.5;97970;;;;
2023/02/26 06:18:40;;;;;;;3.8;1.5;;;;;;;0.8;78.4;98000;;;;
2023/02/26 06:28:40;;;;;;;3.8;1.5;;;;;;;0.8;79.7;98010;;;;
2023/02/26 06:39:40;;;;;;;6.4;2.5;;;;;;;0.8;79.9;98030;;;;
2023/02/26 06:50:40;;;;;;;6.4;2.5;;;;;;;0.9;79.3;98030;;;;
2023/02/26 07:01:40;;;;;;;4.9;2.3;;;;;;;1.1;75.7;98040;;;;
2023/02/26 07:11:40;;;;;;;4.9;2.3;;;;;;;1.2;75;98040;;;;
2023/02/26 07:21:40;;;;;;;4.9;2.3;;;;;;;1.1;75.2;98060;;;;
2023/02/26 07:32:40;;;;;;;5.4;2.6;;;;;;;0.9;75.5;98060;;;;
2023/02/26 07:43:41;;;;;;;5.4;2.6;;;;;;;0.8;75.5;98080;;;;
2023/02/26 07:54:40;;;;;;;5.4;2.6;;;;;;;1.4;75.3;98120;;;;
2023/02/26 08:05:40;;;;;;;5.6;2.9;;;;;;;1.5;70;98130;;;;
2023/02/26 08:15:42;;;;;;;5.6;2.9;;;;;;;1.5;70.9;98160;;;;
2023/02/26 08:25:40;;;;;;;5.6;2.9;;;;;;;1.6;71.5;98170;;;;
2023/02/26 08:36:40;;;;;;;3.4;1.8;;;;;;;1.9;71.4;98170;;;;
2023/02/26 08:46:40;;;;;;;3.4;1.8;;;;;;;1.9;71.6;98190;;;;
2023/02/26 08:57:40;;;;;;;3.4;1.8;;;;;;;1.8;73.2;98210;;;;
2023/02/26 09:08:40;;;;;;;5.4;3;;;;;;;1.7;75.6;98220;;;;
2023/02/26 09:19:40;;;;;;;5.4;3;;;;;;;1.9;74.2;98250;;;;
2023/02/26 09:30:40;;;;;;;4;1.9;;;;;;;2.3;73.9;98260;;;;
2023/02/26 09:40:40;;;;;;;4;1.9;;;;;;;2.3;67.9;98270;;;;
2023/02/26 09:50:40;;;;;;;4;1.9;;;;;;;2.2;67.9;98280;;;;
2023/02/26 10:00:41;;;;;;;6.1;2.6;;;;;;;3;65.3;98270;;;;
2023/02/26 10:11:40;;;;;;;6.1;2.6;;;;;;;3.6;63.4;98280;;;;
2023/02/26 10:22:40;;;;;;;6.1;2.6;;;;;;;4;61.7;98290;;;;
2023/02/26 10:32:40;;;;;;;10;4;;;;;;;2.7;62.9;98310;;;;
2023/02/26 10:42:40;;;;;;;10;4;;;;;;;2.2;63.8;98320;;;;
2023/02/26 10:52:40;;;;;;;10;4;;;;;;;2.1;64.5;98330;;;;
2023/02/26 11:02:40;;;;;;;5;1.6;;;;;;;2.5;63.4;98330;;;;
2023/02/26 11:13:40;;;;;;;5;1.6;;;;;;;3;62.7;98360;;;;
2023/02/26 11:23:40;;;;;;;5;1.6;;;;;;;3.2;66.3;98370;;;;
2023/02/26 11:34:40;;;;;;;3.5;1.9;;;;;;;3.9;64.8;98380;;;;
2023/02/26 11:45:40;;;;;;;3.5;1.9;;;;;;;4.3;61.2;98390;;;;
2023/02/26 11:56:40;;;;;;;3.5;1.9;;;;;;;3.2;70.2;98410;;;;
2023/02/26 12:06:40;;;;;;;4;2.3;;;;;;;2.6;75.5;98430;;;;
2023/02/26 12:17:40;;;;;;;4;2.3;;;;;;;2.3;76.5;98440;;;;
2023/02/26 12:27:40;;;;;;;4;2.3;;;;;;;2.3;76.8;98460;;;;
2023/02/26 12:38:40;;;;;;;4.2;2.6;;;;;;;2.9;74.9;98470;;;;
2023/02/26 12:48:40;;;;;;;4.2;2.6;;;;;;;3.3;70.3;98470;;;;
2023/02/26 12:58:40;;;;;;;4.2;2.6;;;;;;;3.5;67.5;98480;;;;
2023/02/26 13:09:40;;;;;;;4.7;2.7;;;;;;;2.7;70.6;98510;;;;
2023/02/26 13:20:40;;;;;;;4.7;2.7;;;;;;;2.1;69.8;98530;;;;
2023/02/26 13:30:40;;;;;;;4.6;2.1;;;;;;;1.9;70.2;98550;;;;
2023/02/26 13:40:40;;;;;;;4.6;2.1;;;;;;;1.7;71.3;98550;;;;
2023/02/26 13:51:40;;;;;;;4.6;2.1;;;;;;;1.1;72.5;98580;;;;
2023/02/26 14:02:40;;;;;;;4.1;2.1;;;;;;;0.8;71.3;98580;;;;
2023/02/26 14:13:40;;;;;;;4.1;2.1;;;;;;;1;68.5;98600;;;;
2023/02/26 14:24:40;;;;;;;4.1;2.1;;;;;;;1.1;67.7;98610;;;;
2023/02/26 14:35:40;;;;;;;6.2;3.2;;;;;;;1.4;66.5;98610;;;;
2023/02/26 14:46:40;;;;;;;6.2;3.2;;;;;;;1.5;66.9;98610;;;;
2023/02/26 14:56:40;;;;;;;6.2;3.2;;;;;;;1.7;67.6;98610;;;;
2023/02/26 15:06:40;;;;;;;6.6;4.1;;;;;;;1.7;66.3;98630;;;;
2023/02/26 15:16:40;;;;;;;6.6;4.1;;;;;;;1.6;66.7;98660;;;;
2023/02/26 15:26:40;;;;;;;6.6;4.1;;;;;;;1.5;67.3;98670;;;;
2023/02/26 15:37:40;;;;;;;6.9;3;;;;;;;1.4;68;98680;;;;
2023/02/26 15:47:40;;;;;;;6.9;3;;;;;;;1;69.5;98690;;;;
2023/02/26 15:58:41;;;;;;;6.1;2.9;;;;;;;0.9;71.5;98720;;;;
2023/02/26 16:09:40;;;;;;;6.1;2.9;;;;;;;0.9;71.9;98740;;;;
2023/02/26 16:19:40;;;;;;;6.1;2.9;;;;;;;0.8;70.7;98760;;;;
2023/02/26 16:30:40;;;;;;;7.5;3.8;;;;;;;0.5;72.2;98780;;;;
2023/02/26 16:40:40;;;;;;;7.5;3.8;;;;;;;0.6;71.9;98790;;;;
2023/02/26 16:51:40;;;;;;;7.5;3.8;;;;;;;0.6;73;98820;;;;
2023/02/26 17:02:40;;;;;;;19.6;11;;;;;;;0.6;73.3;98840;;;;
2023/02/26 17:12:40;;;;;;;19.6;11;;;;;;;0.6;73.4;98840;;;;
2023/02/26 17:23:40;;;;;;;19.6;11;;;;;;;0.4;72.8;98860;;;;
2023/02/26 17:33:40;;;;;;;16.4;7.3;;;;;;;0.3;72.9;98880;;;;
2023/02/26 17:43:40;;;;;;;16.4;7.3;;;;;;;0.3;73.1;98900;;;;
2023/02/26 17:53:40;;;;;;;16.4;7.3;;;;;;;0.3;72.5;98880;;;;
2023/02/26 18:04:40;;;;;;;13.9;7;;;;;;;0.3;72.6;98880;;;;
2023/02/26 18:15:41;;;;;;;13.9;7;;;;;;;0.3;72.6;98890;;;;
2023/02/26 18:25:40;;;;;;;13.9;7;;;;;;;0.3;72.9;98900;;;;
2023/02/26 18:36:40;;;;;;;7.5;4.1;;;;;;;0.2;73.4;98890;;;;
2023/02/26 18:47:40;;;;;;;7.5;4.1;;;;;;;0.3;73.1;98910;;;;
2023/02/26 18:57:41;;;;;;;7.5;4.1;;;;;;;0.3;73;98940;;;;
2023/02/26 19:07:41;;;;;;;6;3.8;;;;;;;0.3;72.5;98970;;;;
2023/02/26 19:18:40;;;;;;;6;3.8;;;;;;;0.3;72.2;98950;;;;
2023/02/26 19:29:40;;;;;;;19.9;10.2;;;;;;;0.3;72.4;98960;;;;
2023/02/26 19:40:40;;;;;;;19.9;10.2;;;;;;;0.4;72.8;98990;;;;
2023/02/26 19:50:40;;;;;;;19.9;10.2;;;;;;;0.4;72.7;98990;;;;
2023/02/26 20:00:40;;;;;;;8.6;5.3;;;;;;;0.4;72.6;99000;;;;
2023/02/26 20:10:43;;;;;;;8.6;5.3;;;;;;;0.5;72.5;99000;;;;
2023/02/26 20:21:40;;;;;;;8.6;5.3;;;;;;;0.4;72.8;99010;;;;
2023/02/26 20:31:40;;;;;;;10;4.9;;;;;;;0.4;72.9;99020;;;;
2023/02/26 20:42:40;;;;;;;10;4.9;;;;;;;0.4;72.8;99030;;;;
2023/02/26 20:53:41;;;;;;;10;4.9;;;;;;;0.4;72.8;99040;;;;
2023/02/26 21:03:40;;;;;;;19.2;8.6;;;;;;;0.4;72.9;99050;;;;
2023/02/26 21:14:40;;;;;;;19.2;8.6;;;;;;;0.3;72.7;99050;;;;
2023/02/26 21:24:40;;;;;;;19.2;8.6;;;;;;;0.3;72.8;99060;;;;
2023/02/26 21:35:40;;;;;;;12.2;6;;;;;;;0.4;72.9;99070;;;;
2023/02/26 21:46:40;;;;;;;12.2;6;;;;;;;0.4;73.1;99070;;;;
2023/02/26 21:56:40;;;;;;;12.2;6;;;;;;;0.4;73.7;99070;;;;
2023/02/26 22:06:40;;;;;;;9.3;5.2;;;;;;;0.5;74;99080;;;;
2023/02/26 22:16:40;;;;;;;9.3;5.2;;;;;;;0.5;74.4;99090;;;;
2023/02/26 22:26:41;;;;;;;9.3;5.2;;;;;;;0.5;74.7;99100;;;;
2023/02/26 22:37:41;;;;;;;9.4;4.9;;;;;;;0.5;74.4;99100;;;;
2023/02/26 22:48:40;;;;;;;9.4;4.9;;;;;;;0.5;74.8;99110;;;;
2023/02/26 22:59:40;;;;;;;15.5;8.4;;;;;;;0.6;75.3;99120;;;;
2023/02/26 23:09:40;;;;;;;15.5;8.4;;;;;;;0.7;75.5;99120;;;;
2023/02/26 23:20:40;;;;;;;15.5;8.4;;;;;;;0.6;76.2;99140;;;;
2023/02/26 23:30:40;;;;;;;20.1;8.8;;;;;;;0.6;76;99150;;;;
2023/02/26 23:41:40;;;;;;;20.1;8.8;;;;;;;0.6;76.1;99150;;;;
2023/02/26 23:51:40;;;;;;;20.1;8.8;;;;;;;0.5;76.3;99160;;;;
